sensor_id;sensor_type;location;lat;lon;timestamp;P1;durP1;ratioP1;P2;durP2;ratioP2
17488;SDS011;8861;52.644;4.734;2023-01-28T00:00:56;7.13;;;4.13;;
17488;SDS011;8861;52.644;4.734;2023-01-28T00:03:23;3.63;;;3.30;;
17488;SDS011;8861;52.644;4.734;2023-01-28T00:05:50;4.20;;;3.63;;
17488;SDS011;8861;52.644;4.734;2023-01-28T00:08:18;4.30;;;3.87;;
17488;SDS011;8861;52.644;4.734;2023-01-28T00:10:45;5.13;;;3.97;;
17488;SDS011;8861;52.644;4.734;2023-01-28T00:13:13;4.07;;;3.60;;
17488;SDS011;8861;52.644;4.734;2023-01-28T00:15:40;4.43;;;3.70;;
17488;SDS011;8861;52.644;4.734;2023-01-28T00:18:08;5.13;;;4.33;;
17488;SDS011;8861;52.644;4.734;2023-01-28T00:20:35;5.13;;;4.07;;
17488;SDS011;8861;52.644;4.734;2023-01-28T00:23:02;5.97;;;3.90;;
17488;SDS011;8861;52.644;4.734;2023-01-28T00:25:30;5.13;;;4.00;;
17488;SDS011;8861;52.644;4.734;2023-01-28T00:27:57;4.67;;;4.17;;
17488;SDS011;8861;52.644;4.734;2023-01-28T00:30:25;4.17;;;3.77;;
17488;SDS011;8861;52.644;4.734;2023-01-28T00:32:52;5.00;;;3.83;;
17488;SDS011;8861;52.644;4.734;2023-01-28T00:35:20;4.00;;;3.60;;
17488;SDS011;8861;52.644;4.734;2023-01-28T00:37:47;4.80;;;3.70;;
17488;SDS011;8861;52.644;4.734;2023-01-28T00:40:14;4.63;;;3.90;;
17488;SDS011;8861;52.644;4.734;2023-01-28T00:42:41;3.97;;;3.60;;
17488;SDS011;8861;52.644;4.734;2023-01-28T00:45:09;4.30;;;3.37;;
17488;SDS011;8861;52.644;4.734;2023-01-28T00:47:37;4.40;;;2.90;;
17488;SDS011;8861;52.644;4.734;2023-01-28T00:50:05;3.50;;;3.10;;
17488;SDS011;8861;52.644;4.734;2023-01-28T00:52:32;3.67;;;3.30;;
17488;SDS011;8861;52.644;4.734;2023-01-28T00:54:59;5.67;;;3.63;;
17488;SDS011;8861;52.644;4.734;2023-01-28T00:57:26;5.30;;;3.97;;
17488;SDS011;8861;52.644;4.734;2023-01-28T00:59:53;3.70;;;3.40;;
17488;SDS011;8861;52.644;4.734;2023-01-28T01:02:20;3.60;;;3.20;;
17488;SDS011;8861;52.644;4.734;2023-01-28T01:04:49;3.70;;;3.40;;
17488;SDS011;8861;52.644;4.734;2023-01-28T01:07:23;5.07;;;3.17;;
17488;SDS011;8861;52.644;4.734;2023-01-28T01:09:59;3.77;;;3.33;;
17488;SDS011;8861;52.644;4.734;2023-01-28T01:12:26;4.80;;;3.20;;
17488;SDS011;8861;52.644;4.734;2023-01-28T01:14:53;3.63;;;3.17;;
17488;SDS011;8861;52.644;4.734;2023-01-28T01:17:21;3.20;;;2.87;;
17488;SDS011;8861;52.644;4.734;2023-01-28T01:19:49;3.43;;;3.10;;
17488;SDS011;8861;52.644;4.734;2023-01-28T01:22:16;4.57;;;3.27;;
17488;SDS011;8861;52.644;4.734;2023-01-28T01:24:43;3.50;;;3.20;;
17488;SDS011;8861;52.644;4.734;2023-01-28T01:27:10;3.50;;;3.07;;
17488;SDS011;8861;52.644;4.734;2023-01-28T01:29:37;3.30;;;2.93;;
17488;SDS011;8861;52.644;4.734;2023-01-28T01:32:04;3.23;;;2.70;;
17488;SDS011;8861;52.644;4.734;2023-01-28T01:34:31;3.13;;;2.70;;
17488;SDS011;8861;52.644;4.734;2023-01-28T01:37:00;3.30;;;2.97;;
17488;SDS011;8861;52.644;4.734;2023-01-28T01:39:30;3.00;;;2.50;;
17488;SDS011;8861;52.644;4.734;2023-01-28T01:41:57;3.13;;;2.73;;
17488;SDS011;8861;52.644;4.734;2023-01-28T01:47:26;3.03;;;2.73;;
17488;SDS011;8861;52.644;4.734;2023-01-28T01:50:01;4.00;;;3.07;;
17488;SDS011;8861;52.644;4.734;2023-01-28T01:52:34;3.47;;;2.80;;
17488;SDS011;8861;52.644;4.734;2023-01-28T01:55:03;2.93;;;2.50;;
17488;SDS011;8861;52.644;4.734;2023-01-28T01:57:35;2.70;;;2.50;;
17488;SDS011;8861;52.644;4.734;2023-01-28T02:00:03;3.83;;;2.90;;
17488;SDS011;8861;52.644;4.734;2023-01-28T02:02:34;3.70;;;2.90;;
17488;SDS011;8861;52.644;4.734;2023-01-28T02:05:04;2.90;;;2.43;;
17488;SDS011;8861;52.644;4.734;2023-01-28T02:07:34;3.63;;;2.67;;
17488;SDS011;8861;52.644;4.734;2023-01-28T02:10:02;4.07;;;2.50;;
17488;SDS011;8861;52.644;4.734;2023-01-28T02:12:30;2.27;;;2.10;;
17488;SDS011;8861;52.644;4.734;2023-01-28T02:15:01;2.70;;;2.13;;
17488;SDS011;8861;52.644;4.734;2023-01-28T02:17:31;2.30;;;2.00;;
17488;SDS011;8861;52.644;4.734;2023-01-28T02:19:58;2.27;;;2.17;;
17488;SDS011;8861;52.644;4.734;2023-01-28T02:29:09;2.00;;;1.80;;
17488;SDS011;8861;52.644;4.734;2023-01-28T02:31:42;2.10;;;1.87;;
17488;SDS011;8861;52.644;4.734;2023-01-28T02:34:15;2.17;;;1.97;;
17488;SDS011;8861;52.644;4.734;2023-01-28T02:36:45;2.40;;;2.20;;
17488;SDS011;8861;52.644;4.734;2023-01-28T02:39:15;2.30;;;2.10;;
17488;SDS011;8861;52.644;4.734;2023-01-28T02:41:45;2.27;;;2.13;;
17488;SDS011;8861;52.644;4.734;2023-01-28T02:44:18;2.97;;;2.67;;
17488;SDS011;8861;52.644;4.734;2023-01-28T02:46:45;2.50;;;2.30;;
17488;SDS011;8861;52.644;4.734;2023-01-28T02:49:30;2.67;;;2.43;;
17488;SDS011;8861;52.644;4.734;2023-01-28T02:52:11;2.33;;;2.10;;
17488;SDS011;8861;52.644;4.734;2023-01-28T02:55:08;3.03;;;2.27;;
17488;SDS011;8861;52.644;4.734;2023-01-28T02:57:42;2.83;;;2.20;;
17488;SDS011;8861;52.644;4.734;2023-01-28T03:00:17;3.70;;;2.20;;
17488;SDS011;8861;52.644;4.734;2023-01-28T03:02:49;4.30;;;2.70;;
17488;SDS011;8861;52.644;4.734;2023-01-28T03:05:22;2.60;;;2.40;;
17488;SDS011;8861;52.644;4.734;2023-01-28T03:07:53;2.40;;;2.20;;
17488;SDS011;8861;52.644;4.734;2023-01-28T03:10:21;2.50;;;2.30;;
17488;SDS011;8861;52.644;4.734;2023-01-28T03:12:50;2.57;;;2.37;;
17488;SDS011;8861;52.644;4.734;2023-01-28T03:15:38;2.30;;;2.10;;
17488;SDS011;8861;52.644;4.734;2023-01-28T03:18:27;2.60;;;2.40;;
17488;SDS011;8861;52.644;4.734;2023-01-28T03:21:16;2.53;;;2.33;;
17488;SDS011;8861;52.644;4.734;2023-01-28T03:24:06;2.60;;;2.40;;
17488;SDS011;8861;52.644;4.734;2023-01-28T03:26:55;2.67;;;2.47;;
17488;SDS011;8861;52.644;4.734;2023-01-28T03:29:46;2.77;;;2.47;;
17488;SDS011;8861;52.644;4.734;2023-01-28T03:32:35;2.87;;;2.27;;
17488;SDS011;8861;52.644;4.734;2023-01-28T03:35:24;2.40;;;2.20;;
17488;SDS011;8861;52.644;4.734;2023-01-28T03:38:13;3.67;;;2.63;;
17488;SDS011;8861;52.644;4.734;2023-01-28T03:40:50;2.83;;;2.40;;
17488;SDS011;8861;52.644;4.734;2023-01-28T03:43:20;2.60;;;2.40;;
17488;SDS011;8861;52.644;4.734;2023-01-28T03:45:48;3.20;;;1.93;;
17488;SDS011;8861;52.644;4.734;2023-01-28T03:48:18;2.57;;;2.23;;
17488;SDS011;8861;52.644;4.734;2023-01-28T03:50:45;2.23;;;2.00;;
17488;SDS011;8861;52.644;4.734;2023-01-28T03:53:13;3.80;;;2.17;;
17488;SDS011;8861;52.644;4.734;2023-01-28T03:55:40;2.30;;;2.10;;
17488;SDS011;8861;52.644;4.734;2023-01-28T03:58:07;2.30;;;2.10;;
17488;SDS011;8861;52.644;4.734;2023-01-28T04:00:34;4.97;;;2.10;;
17488;SDS011;8861;52.644;4.734;2023-01-28T04:03:06;2.00;;;1.90;;
17488;SDS011;8861;52.644;4.734;2023-01-28T04:05:41;2.43;;;2.07;;
17488;SDS011;8861;52.644;4.734;2023-01-28T04:08:08;2.30;;;2.10;;
17488;SDS011;8861;52.644;4.734;2023-01-28T04:10:35;2.93;;;2.10;;
17488;SDS011;8861;52.644;4.734;2023-01-28T04:13:03;2.93;;;2.30;;
17488;SDS011;8861;52.644;4.734;2023-01-28T04:15:30;2.80;;;2.47;;
17488;SDS011;8861;52.644;4.734;2023-01-28T04:17:59;2.60;;;2.40;;
17488;SDS011;8861;52.644;4.734;2023-01-28T04:20:26;3.63;;;2.90;;
17488;SDS011;8861;52.644;4.734;2023-01-28T04:22:55;4.83;;;3.20;;
17488;SDS011;8861;52.644;4.734;2023-01-28T04:25:22;3.90;;;3.23;;
17488;SDS011;8861;52.644;4.734;2023-01-28T04:27:49;3.77;;;3.10;;
17488;SDS011;8861;52.644;4.734;2023-01-28T04:30:16;5.43;;;3.70;;
17488;SDS011;8861;52.644;4.734;2023-01-28T04:32:44;4.03;;;3.63;;
17488;SDS011;8861;52.644;4.734;2023-01-28T04:35:12;4.20;;;3.80;;
17488;SDS011;8861;52.644;4.734;2023-01-28T04:37:39;5.40;;;3.90;;
17488;SDS011;8861;52.644;4.734;2023-01-28T04:40:09;4.77;;;3.93;;
17488;SDS011;8861;52.644;4.734;2023-01-28T04:42:37;5.40;;;4.23;;
17488;SDS011;8861;52.644;4.734;2023-01-28T04:45:04;4.37;;;3.93;;
17488;SDS011;8861;52.644;4.734;2023-01-28T04:47:32;6.40;;;3.80;;
17488;SDS011;8861;52.644;4.734;2023-01-28T04:49:59;3.90;;;3.50;;
17488;SDS011;8861;52.644;4.734;2023-01-28T04:52:26;4.30;;;3.80;;
17488;SDS011;8861;52.644;4.734;2023-01-28T04:54:53;4.23;;;3.80;;
17488;SDS011;8861;52.644;4.734;2023-01-28T04:57:21;4.53;;;4.03;;
17488;SDS011;8861;52.644;4.734;2023-01-28T04:59:48;6.27;;;4.83;;
17488;SDS011;8861;52.644;4.734;2023-01-28T05:02:15;5.10;;;4.40;;
17488;SDS011;8861;52.644;4.734;2023-01-28T05:04:42;5.90;;;4.63;;
17488;SDS011;8861;52.644;4.734;2023-01-28T05:07:09;6.53;;;4.70;;
17488;SDS011;8861;52.644;4.734;2023-01-28T05:09:36;6.20;;;5.07;;
17488;SDS011;8861;52.644;4.734;2023-01-28T05:12:03;6.30;;;4.70;;
17488;SDS011;8861;52.644;4.734;2023-01-28T05:14:31;5.87;;;5.00;;
17488;SDS011;8861;52.644;4.734;2023-01-28T05:16:58;5.77;;;4.47;;
17488;SDS011;8861;52.644;4.734;2023-01-28T05:19:25;5.43;;;4.40;;
17488;SDS011;8861;52.644;4.734;2023-01-28T05:21:52;5.40;;;4.30;;
17488;SDS011;8861;52.644;4.734;2023-01-28T05:24:19;6.27;;;4.90;;
17488;SDS011;8861;52.644;4.734;2023-01-28T05:26:46;7.00;;;5.00;;
17488;SDS011;8861;52.644;4.734;2023-01-28T05:29:13;6.70;;;4.77;;
17488;SDS011;8861;52.644;4.734;2023-01-28T05:31:41;7.77;;;5.20;;
17488;SDS011;8861;52.644;4.734;2023-01-28T05:34:08;6.27;;;4.80;;
17488;SDS011;8861;52.644;4.734;2023-01-28T05:36:35;6.20;;;5.00;;
17488;SDS011;8861;52.644;4.734;2023-01-28T05:39:02;5.60;;;4.80;;
17488;SDS011;8861;52.644;4.734;2023-01-28T05:41:30;5.93;;;4.97;;
17488;SDS011;8861;52.644;4.734;2023-01-28T05:43:57;7.63;;;5.13;;
17488;SDS011;8861;52.644;4.734;2023-01-28T05:46:24;6.27;;;5.07;;
17488;SDS011;8861;52.644;4.734;2023-01-28T05:48:52;7.30;;;5.30;;
17488;SDS011;8861;52.644;4.734;2023-01-28T05:51:19;6.30;;;4.93;;
17488;SDS011;8861;52.644;4.734;2023-01-28T05:53:46;6.20;;;5.03;;
17488;SDS011;8861;52.644;4.734;2023-01-28T05:56:13;5.43;;;4.77;;
17488;SDS011;8861;52.644;4.734;2023-01-28T05:58:40;6.10;;;5.10;;
17488;SDS011;8861;52.644;4.734;2023-01-28T06:01:06;6.10;;;4.70;;
17488;SDS011;8861;52.644;4.734;2023-01-28T06:03:33;5.30;;;4.80;;
17488;SDS011;8861;52.644;4.734;2023-01-28T06:06:02;8.00;;;4.73;;
17488;SDS011;8861;52.644;4.734;2023-01-28T06:08:29;6.67;;;5.00;;
17488;SDS011;8861;52.644;4.734;2023-01-28T06:10:56;5.77;;;4.70;;
17488;SDS011;8861;52.644;4.734;2023-01-28T06:13:22;5.53;;;4.80;;
17488;SDS011;8861;52.644;4.734;2023-01-28T06:15:49;6.93;;;4.67;;
17488;SDS011;8861;52.644;4.734;2023-01-28T06:18:16;5.03;;;4.23;;
17488;SDS011;8861;52.644;4.734;2023-01-28T06:20:43;7.07;;;4.90;;
17488;SDS011;8861;52.644;4.734;2023-01-28T06:23:11;8.23;;;5.90;;
17488;SDS011;8861;52.644;4.734;2023-01-28T06:25:38;7.73;;;5.70;;
17488;SDS011;8861;52.644;4.734;2023-01-28T06:28:05;8.27;;;5.50;;
17488;SDS011;8861;52.644;4.734;2023-01-28T06:30:32;7.03;;;5.43;;
17488;SDS011;8861;52.644;4.734;2023-01-28T06:32:59;7.27;;;5.10;;
17488;SDS011;8861;52.644;4.734;2023-01-28T06:35:26;8.20;;;5.90;;
17488;SDS011;8861;52.644;4.734;2023-01-28T06:37:53;6.60;;;5.50;;
17488;SDS011;8861;52.644;4.734;2023-01-28T06:40:22;7.27;;;5.70;;
17488;SDS011;8861;52.644;4.734;2023-01-28T06:42:49;8.97;;;5.80;;
17488;SDS011;8861;52.644;4.734;2023-01-28T06:45:15;7.67;;;5.80;;
17488;SDS011;8861;52.644;4.734;2023-01-28T06:47:42;6.90;;;5.43;;
17488;SDS011;8861;52.644;4.734;2023-01-28T06:50:10;6.60;;;5.30;;
17488;SDS011;8861;52.644;4.734;2023-01-28T06:52:37;7.37;;;5.67;;
17488;SDS011;8861;52.644;4.734;2023-01-28T06:55:05;6.43;;;5.00;;
17488;SDS011;8861;52.644;4.734;2023-01-28T06:57:36;7.03;;;5.43;;
17488;SDS011;8861;52.644;4.734;2023-01-28T07:00:03;6.67;;;5.10;;
17488;SDS011;8861;52.644;4.734;2023-01-28T07:02:32;8.70;;;5.33;;
17488;SDS011;8861;52.644;4.734;2023-01-28T07:04:59;7.60;;;5.47;;
17488;SDS011;8861;52.644;4.734;2023-01-28T07:07:26;7.70;;;5.90;;
17488;SDS011;8861;52.644;4.734;2023-01-28T07:09:53;7.43;;;5.80;;
17488;SDS011;8861;52.644;4.734;2023-01-28T07:12:20;7.80;;;5.80;;
17488;SDS011;8861;52.644;4.734;2023-01-28T07:14:48;8.83;;;6.13;;
17488;SDS011;8861;52.644;4.734;2023-01-28T07:17:15;7.23;;;5.67;;
17488;SDS011;8861;52.644;4.734;2023-01-28T07:19:42;8.27;;;6.07;;
17488;SDS011;8861;52.644;4.734;2023-01-28T07:22:09;8.13;;;6.33;;
17488;SDS011;8861;52.644;4.734;2023-01-28T07:24:36;9.37;;;6.30;;
17488;SDS011;8861;52.644;4.734;2023-01-28T07:27:02;8.93;;;6.57;;
17488;SDS011;8861;52.644;4.734;2023-01-28T07:29:29;9.40;;;7.03;;
17488;SDS011;8861;52.644;4.734;2023-01-28T07:31:58;8.90;;;6.17;;
17488;SDS011;8861;52.644;4.734;2023-01-28T07:34:25;9.17;;;6.77;;
17488;SDS011;8861;52.644;4.734;2023-01-28T07:36:52;11.63;;;7.17;;
17488;SDS011;8861;52.644;4.734;2023-01-28T07:39:19;9.20;;;6.47;;
17488;SDS011;8861;52.644;4.734;2023-01-28T07:41:46;9.80;;;7.10;;
17488;SDS011;8861;52.644;4.734;2023-01-28T07:44:13;10.23;;;7.00;;
17488;SDS011;8861;52.644;4.734;2023-01-28T07:46:40;10.27;;;7.10;;
17488;SDS011;8861;52.644;4.734;2023-01-28T07:49:08;10.00;;;7.30;;
17488;SDS011;8861;52.644;4.734;2023-01-28T07:51:35;8.83;;;6.50;;
17488;SDS011;8861;52.644;4.734;2023-01-28T07:54:02;9.07;;;7.00;;
17488;SDS011;8861;52.644;4.734;2023-01-28T07:56:29;11.13;;;7.73;;
17488;SDS011;8861;52.644;4.734;2023-01-28T07:58:56;11.93;;;8.23;;
17488;SDS011;8861;52.644;4.734;2023-01-28T08:01:23;13.90;;;8.90;;
17488;SDS011;8861;52.644;4.734;2023-01-28T08:03:51;12.43;;;8.97;;
17488;SDS011;8861;52.644;4.734;2023-01-28T08:06:19;14.07;;;9.43;;
17488;SDS011;8861;52.644;4.734;2023-01-28T08:08:46;14.13;;;10.07;;
17488;SDS011;8861;52.644;4.734;2023-01-28T08:11:13;15.13;;;10.13;;
17488;SDS011;8861;52.644;4.734;2023-01-28T08:13:40;16.13;;;10.40;;
17488;SDS011;8861;52.644;4.734;2023-01-28T08:16:07;14.77;;;10.20;;
17488;SDS011;8861;52.644;4.734;2023-01-28T08:18:34;15.07;;;10.00;;
17488;SDS011;8861;52.644;4.734;2023-01-28T08:21:01;15.53;;;10.30;;
17488;SDS011;8861;52.644;4.734;2023-01-28T08:23:30;15.43;;;9.87;;
17488;SDS011;8861;52.644;4.734;2023-01-28T08:25:58;16.63;;;10.83;;
17488;SDS011;8861;52.644;4.734;2023-01-28T08:28:26;16.00;;;10.37;;
17488;SDS011;8861;52.644;4.734;2023-01-28T08:30:53;14.70;;;10.00;;
17488;SDS011;8861;52.644;4.734;2023-01-28T08:33:19;15.53;;;10.43;;
17488;SDS011;8861;52.644;4.734;2023-01-28T08:35:46;12.77;;;8.80;;
17488;SDS011;8861;52.644;4.734;2023-01-28T08:38:13;13.53;;;9.20;;
17488;SDS011;8861;52.644;4.734;2023-01-28T08:40:43;14.10;;;9.73;;
17488;SDS011;8861;52.644;4.734;2023-01-28T08:43:10;13.80;;;9.17;;
17488;SDS011;8861;52.644;4.734;2023-01-28T08:45:38;14.10;;;9.77;;
17488;SDS011;8861;52.644;4.734;2023-01-28T08:48:06;13.30;;;9.50;;
17488;SDS011;8861;52.644;4.734;2023-01-28T08:50:37;14.70;;;9.87;;
17488;SDS011;8861;52.644;4.734;2023-01-28T08:53:05;13.63;;;9.37;;
17488;SDS011;8861;52.644;4.734;2023-01-28T08:55:33;13.67;;;9.33;;
17488;SDS011;8861;52.644;4.734;2023-01-28T08:58:02;14.60;;;9.93;;
17488;SDS011;8861;52.644;4.734;2023-01-28T09:00:30;16.47;;;9.80;;
17488;SDS011;8861;52.644;4.734;2023-01-28T09:02:57;16.17;;;10.03;;
17488;SDS011;8861;52.644;4.734;2023-01-28T09:05:24;15.57;;;9.97;;
17488;SDS011;8861;52.644;4.734;2023-01-28T09:07:51;16.07;;;9.90;;
17488;SDS011;8861;52.644;4.734;2023-01-28T09:10:18;14.83;;;9.30;;
17488;SDS011;8861;52.644;4.734;2023-01-28T09:12:46;13.17;;;8.83;;
17488;SDS011;8861;52.644;4.734;2023-01-28T09:15:14;12.87;;;8.63;;
17488;SDS011;8861;52.644;4.734;2023-01-28T09:17:42;11.27;;;8.10;;
17488;SDS011;8861;52.644;4.734;2023-01-28T09:20:09;12.57;;;8.00;;
17488;SDS011;8861;52.644;4.734;2023-01-28T09:22:37;16.27;;;8.23;;
17488;SDS011;8861;52.644;4.734;2023-01-28T09:25:05;13.00;;;8.53;;
17488;SDS011;8861;52.644;4.734;2023-01-28T09:27:32;11.47;;;7.70;;
17488;SDS011;8861;52.644;4.734;2023-01-28T09:29:59;11.53;;;7.60;;
17488;SDS011;8861;52.644;4.734;2023-01-28T09:32:27;11.33;;;7.63;;
17488;SDS011;8861;52.644;4.734;2023-01-28T09:34:55;11.03;;;7.53;;
17488;SDS011;8861;52.644;4.734;2023-01-28T09:37:22;9.87;;;6.87;;
17488;SDS011;8861;52.644;4.734;2023-01-28T09:39:49;9.70;;;6.97;;
17488;SDS011;8861;52.644;4.734;2023-01-28T09:42:26;11.53;;;6.80;;
17488;SDS011;8861;52.644;4.734;2023-01-28T09:45:09;9.97;;;6.30;;
17488;SDS011;8861;52.644;4.734;2023-01-28T09:47:45;7.43;;;5.70;;
17488;SDS011;8861;52.644;4.734;2023-01-28T09:50:15;10.17;;;5.80;;
17488;SDS011;8861;52.644;4.734;2023-01-28T09:52:45;8.53;;;5.57;;
17488;SDS011;8861;52.644;4.734;2023-01-28T09:55:14;6.90;;;5.10;;
17488;SDS011;8861;52.644;4.734;2023-01-28T09:57:49;7.80;;;4.70;;
17488;SDS011;8861;52.644;4.734;2023-01-28T10:00:18;7.63;;;5.50;;
17488;SDS011;8861;52.644;4.734;2023-01-28T10:02:53;7.30;;;5.37;;
17488;SDS011;8861;52.644;4.734;2023-01-28T10:05:34;6.83;;;5.13;;
17488;SDS011;8861;52.644;4.734;2023-01-28T10:08:14;6.70;;;4.73;;
17488;SDS011;8861;52.644;4.734;2023-01-28T10:10:52;6.00;;;4.67;;
17488;SDS011;8861;52.644;4.734;2023-01-28T10:13:28;6.30;;;4.57;;
17488;SDS011;8861;52.644;4.734;2023-01-28T10:16:15;4.80;;;4.27;;
17488;SDS011;8861;52.644;4.734;2023-01-28T10:18:51;5.00;;;4.10;;
17488;SDS011;8861;52.644;4.734;2023-01-28T10:21:23;5.53;;;3.60;;
17488;SDS011;8861;52.644;4.734;2023-01-28T10:23:56;4.87;;;3.63;;
17488;SDS011;8861;52.644;4.734;2023-01-28T10:26:30;3.87;;;3.37;;
17488;SDS011;8861;52.644;4.734;2023-01-28T10:29:03;4.90;;;3.63;;
17488;SDS011;8861;52.644;4.734;2023-01-28T10:31:38;4.90;;;3.60;;
17488;SDS011;8861;52.644;4.734;2023-01-28T10:34:13;4.43;;;3.30;;
17488;SDS011;8861;52.644;4.734;2023-01-28T10:36:42;4.10;;;3.30;;
17488;SDS011;8861;52.644;4.734;2023-01-28T10:39:09;4.27;;;3.80;;
17488;SDS011;8861;52.644;4.734;2023-01-28T10:41:39;3.93;;;3.47;;
17488;SDS011;8861;52.644;4.734;2023-01-28T10:44:07;4.77;;;3.90;;
17488;SDS011;8861;52.644;4.734;2023-01-28T10:46:39;5.17;;;3.37;;
17488;SDS011;8861;52.644;4.734;2023-01-28T10:49:11;4.87;;;4.03;;
17488;SDS011;8861;52.644;4.734;2023-01-28T10:51:42;7.30;;;4.30;;
17488;SDS011;8861;52.644;4.734;2023-01-28T10:54:17;6.63;;;4.30;;
17488;SDS011;8861;52.644;4.734;2023-01-28T10:56:46;6.20;;;4.50;;
17488;SDS011;8861;52.644;4.734;2023-01-28T10:59:19;7.13;;;4.13;;
17488;SDS011;8861;52.644;4.734;2023-01-28T11:01:48;7.90;;;3.67;;
17488;SDS011;8861;52.644;4.734;2023-01-28T11:04:21;4.17;;;3.60;;
17488;SDS011;8861;52.644;4.734;2023-01-28T11:06:51;4.27;;;3.40;;
17488;SDS011;8861;52.644;4.734;2023-01-28T11:09:23;3.40;;;3.03;;
17488;SDS011;8861;52.644;4.734;2023-01-28T11:11:51;6.93;;;2.90;;
17488;SDS011;8861;52.644;4.734;2023-01-28T11:14:18;6.80;;;3.33;;
17488;SDS011;8861;52.644;4.734;2023-01-28T11:16:49;5.40;;;3.17;;
17488;SDS011;8861;52.644;4.734;2023-01-28T11:19:20;4.63;;;3.23;;
17488;SDS011;8861;52.644;4.734;2023-01-28T11:21:52;4.30;;;3.00;;
17488;SDS011;8861;52.644;4.734;2023-01-28T11:24:22;4.17;;;3.00;;
17488;SDS011;8861;52.644;4.734;2023-01-28T11:26:54;3.83;;;3.30;;
17488;SDS011;8861;52.644;4.734;2023-01-28T11:29:23;5.13;;;3.10;;
17488;SDS011;8861;52.644;4.734;2023-01-28T11:31:53;5.00;;;2.90;;
17488;SDS011;8861;52.644;4.734;2023-01-28T11:34:24;6.20;;;3.03;;
17488;SDS011;8861;52.644;4.734;2023-01-28T11:36:52;3.50;;;2.60;;
17488;SDS011;8861;52.644;4.734;2023-01-28T11:39:25;7.20;;;3.70;;
17488;SDS011;8861;52.644;4.734;2023-01-28T11:41:53;5.07;;;3.33;;
17488;SDS011;8861;52.644;4.734;2023-01-28T11:44:28;4.67;;;3.20;;
17488;SDS011;8861;52.644;4.734;2023-01-28T11:47:09;5.53;;;2.97;;
17488;SDS011;8861;52.644;4.734;2023-01-28T11:52:40;4.80;;;2.90;;
17488;SDS011;8861;52.644;4.734;2023-01-28T11:55:21;4.43;;;2.30;;
17488;SDS011;8861;52.644;4.734;2023-01-28T11:58:06;4.77;;;3.07;;
17488;SDS011;8861;52.644;4.734;2023-01-28T12:00:46;5.53;;;3.30;;
17488;SDS011;8861;52.644;4.734;2023-01-28T12:03:33;6.33;;;3.30;;
17488;SDS011;8861;52.644;4.734;2023-01-28T12:06:20;5.23;;;2.70;;
17488;SDS011;8861;52.644;4.734;2023-01-28T12:08:56;4.33;;;2.57;;
17488;SDS011;8861;52.644;4.734;2023-01-28T12:11:35;3.93;;;3.20;;
17488;SDS011;8861;52.644;4.734;2023-01-28T12:14:31;8.20;;;3.40;;
17488;SDS011;8861;52.644;4.734;2023-01-28T12:17:15;5.20;;;3.37;;
17488;SDS011;8861;52.644;4.734;2023-01-28T12:19:57;4.87;;;2.40;;
17488;SDS011;8861;52.644;4.734;2023-01-28T12:22:45;3.37;;;2.30;;
17488;SDS011;8861;52.644;4.734;2023-01-28T12:25:28;3.10;;;2.60;;
17488;SDS011;8861;52.644;4.734;2023-01-28T12:28:07;2.80;;;2.17;;
17488;SDS011;8861;52.644;4.734;2023-01-28T12:30:45;4.57;;;2.63;;
17488;SDS011;8861;52.644;4.734;2023-01-28T12:33:37;3.17;;;2.40;;
17488;SDS011;8861;52.644;4.734;2023-01-28T12:36:17;2.97;;;2.10;;
17488;SDS011;8861;52.644;4.734;2023-01-28T12:38:55;4.00;;;2.50;;
17488;SDS011;8861;52.644;4.734;2023-01-28T12:41:33;5.63;;;2.10;;
17488;SDS011;8861;52.644;4.734;2023-01-28T12:44:05;3.03;;;2.03;;
17488;SDS011;8861;52.644;4.734;2023-01-28T12:46:41;2.80;;;2.00;;
17488;SDS011;8861;52.644;4.734;2023-01-28T12:49:15;1.97;;;1.73;;
17488;SDS011;8861;52.644;4.734;2023-01-28T12:51:47;3.20;;;1.87;;
17488;SDS011;8861;52.644;4.734;2023-01-28T12:54:21;2.80;;;1.87;;
17488;SDS011;8861;52.644;4.734;2023-01-28T12:56:53;4.03;;;2.23;;
17488;SDS011;8861;52.644;4.734;2023-01-28T12:59:22;3.97;;;2.20;;
17488;SDS011;8861;52.644;4.734;2023-01-28T13:01:56;2.97;;;2.00;;
17488;SDS011;8861;52.644;4.734;2023-01-28T13:04:33;3.20;;;2.37;;
17488;SDS011;8861;52.644;4.734;2023-01-28T13:07:05;3.83;;;2.40;;
17488;SDS011;8861;52.644;4.734;2023-01-28T13:09:38;5.03;;;2.23;;
17488;SDS011;8861;52.644;4.734;2023-01-28T13:12:12;3.27;;;2.23;;
17488;SDS011;8861;52.644;4.734;2023-01-28T13:14:39;3.63;;;2.00;;
17488;SDS011;8861;52.644;4.734;2023-01-28T13:17:07;3.73;;;2.23;;
17488;SDS011;8861;52.644;4.734;2023-01-28T13:19:35;6.20;;;3.83;;
17488;SDS011;8861;52.644;4.734;2023-01-28T13:22:10;5.83;;;3.40;;
17488;SDS011;8861;52.644;4.734;2023-01-28T13:24:50;8.67;;;3.43;;
17488;SDS011;8861;52.644;4.734;2023-01-28T13:27:20;8.30;;;3.70;;
17488;SDS011;8861;52.644;4.734;2023-01-28T13:29:58;6.43;;;3.73;;
17488;SDS011;8861;52.644;4.734;2023-01-28T13:32:28;8.93;;;4.27;;
17488;SDS011;8861;52.644;4.734;2023-01-28T13:34:58;6.63;;;3.70;;
17488;SDS011;8861;52.644;4.734;2023-01-28T13:37:28;5.77;;;3.43;;
17488;SDS011;8861;52.644;4.734;2023-01-28T13:40:01;4.93;;;3.37;;
17488;SDS011;8861;52.644;4.734;2023-01-28T13:42:33;4.80;;;3.20;;
17488;SDS011;8861;52.644;4.734;2023-01-28T13:45:19;4.23;;;2.83;;
17488;SDS011;8861;52.644;4.734;2023-01-28T13:47:49;4.17;;;2.70;;
17488;SDS011;8861;52.644;4.734;2023-01-28T13:50:19;4.00;;;3.07;;
17488;SDS011;8861;52.644;4.734;2023-01-28T13:52:49;4.90;;;3.17;;
17488;SDS011;8861;52.644;4.734;2023-01-28T13:55:23;4.60;;;2.67;;
17488;SDS011;8861;52.644;4.734;2023-01-28T14:01:05;5.40;;;2.87;;
17488;SDS011;8861;52.644;4.734;2023-01-28T14:04:13;4.93;;;3.10;;
17488;SDS011;8861;52.644;4.734;2023-01-28T14:07:17;6.13;;;3.27;;
17488;SDS011;8861;52.644;4.734;2023-01-28T14:10:16;3.30;;;2.87;;
17488;SDS011;8861;52.644;4.734;2023-01-28T14:16:10;4.00;;;2.87;;
17488;SDS011;8861;52.644;4.734;2023-01-28T14:18:54;3.53;;;2.47;;
17488;SDS011;8861;52.644;4.734;2023-01-28T14:21:24;5.63;;;2.83;;
17488;SDS011;8861;52.644;4.734;2023-01-28T14:23:53;5.40;;;2.80;;
17488;SDS011;8861;52.644;4.734;2023-01-28T14:26:28;3.03;;;2.27;;
17488;SDS011;8861;52.644;4.734;2023-01-28T14:29:17;6.70;;;2.67;;
17488;SDS011;8861;52.644;4.734;2023-01-28T14:31:52;4.33;;;2.13;;
17488;SDS011;8861;52.644;4.734;2023-01-28T14:34:21;5.97;;;2.70;;
17488;SDS011;8861;52.644;4.734;2023-01-28T14:36:53;3.47;;;2.70;;
17488;SDS011;8861;52.644;4.734;2023-01-28T14:39:23;5.33;;;2.77;;
17488;SDS011;8861;52.644;4.734;2023-01-28T14:41:54;4.17;;;2.43;;
17488;SDS011;8861;52.644;4.734;2023-01-28T14:44:26;3.50;;;2.37;;
17488;SDS011;8861;52.644;4.734;2023-01-28T14:49:55;2.90;;;2.27;;
17488;SDS011;8861;52.644;4.734;2023-01-28T14:52:37;8.93;;;2.63;;
17488;SDS011;8861;52.644;4.734;2023-01-28T14:55:27;4.33;;;2.80;;
17488;SDS011;8861;52.644;4.734;2023-01-28T14:58:00;4.97;;;3.20;;
17488;SDS011;8861;52.644;4.734;2023-01-28T15:00:32;4.43;;;3.10;;
17488;SDS011;8861;52.644;4.734;2023-01-28T15:03:07;4.93;;;3.13;;
17488;SDS011;8861;52.644;4.734;2023-01-28T15:05:34;6.70;;;4.27;;
17488;SDS011;8861;52.644;4.734;2023-01-28T15:08:01;6.80;;;4.13;;
17488;SDS011;8861;52.644;4.734;2023-01-28T15:10:29;6.40;;;4.07;;
17488;SDS011;8861;52.644;4.734;2023-01-28T15:13:04;5.93;;;4.57;;
17488;SDS011;8861;52.644;4.734;2023-01-28T15:15:33;9.27;;;4.43;;
17488;SDS011;8861;52.644;4.734;2023-01-28T15:18:04;8.10;;;4.90;;
17488;SDS011;8861;52.644;4.734;2023-01-28T15:20:37;7.50;;;4.90;;
17488;SDS011;8861;52.644;4.734;2023-01-28T15:23:08;6.90;;;4.80;;
17488;SDS011;8861;52.644;4.734;2023-01-28T15:25:39;6.33;;;4.43;;
17488;SDS011;8861;52.644;4.734;2023-01-28T15:28:11;6.43;;;4.40;;
17488;SDS011;8861;52.644;4.734;2023-01-28T15:30:45;7.30;;;5.07;;
17488;SDS011;8861;52.644;4.734;2023-01-28T15:33:12;8.77;;;4.97;;
17488;SDS011;8861;52.644;4.734;2023-01-28T15:35:45;6.53;;;5.20;;
17488;SDS011;8861;52.644;4.734;2023-01-28T15:38:12;9.23;;;5.50;;
17488;SDS011;8861;52.644;4.734;2023-01-28T15:40:42;7.90;;;5.30;;
17488;SDS011;8861;52.644;4.734;2023-01-28T15:43:13;10.13;;;6.10;;
17488;SDS011;8861;52.644;4.734;2023-01-28T15:45:46;9.23;;;6.07;;